createdAt,value
2017-08-31T00:00:00.265Z,76.32
2017-08-31T00:01:00.291Z,75.26
2017-08-31T00:02:00.318Z,75.55
2017-08-31T00:03:00.335Z,75.65
2017-08-31T00:04:00.363Z,75.45
2017-08-31T00:05:15.005Z,76.71
2017-08-31T00:06:00.398Z,76.42
2017-08-31T00:07:00.437Z,77.19
2017-08-31T00:08:00.468Z,75.93
2017-08-31T00:09:00.501Z,77
2017-08-31T00:10:00.509Z,77.76
2017-08-31T00:11:00.546Z,78.44
2017-08-31T00:12:00.573Z,78.34
2017-08-31T00:13:00.595Z,77.28
2017-08-31T00:14:00.618Z,78.79
2017-08-31T00:15:00.650Z,79.31
2017-08-31T00:16:00.358Z,78.69
2017-08-31T00:17:00.384Z,78.4
2017-08-31T00:18:00.741Z,78.31
2017-08-31T00:19:00.754Z,78.4
2017-08-31T00:20:00.771Z,78.4
2017-08-31T00:21:15.411Z,78.31
2017-08-31T00:22:00.517Z,78.5
2017-08-31T00:23:00.858Z,78.98
2017-08-31T00:24:00.872Z,78.4
2017-08-31T00:25:00.898Z,78.11
2017-08-31T00:26:00.924Z,78.31
2017-08-31T00:27:00.992Z,78.79
2017-08-31T00:28:00.973Z,78.88
2017-08-31T00:30:01.028Z,80.43
2017-08-31T00:31:01.039Z,80.62
2017-08-31T00:32:01.082Z,79.46
2017-08-31T00:33:00.793Z,80.04
2017-08-31T00:34:01.130Z,80.62
2017-08-31T00:35:01.450Z,80.52
2017-08-31T00:36:01.178Z,80.87
2017-08-31T00:37:15.818Z,80.48
2017-08-31T00:38:01.235Z,80.87
2017-08-31T00:39:01.258Z,80.48
2017-08-31T00:40:01.293Z,81.06
2017-08-31T00:42:01.345Z,81.63
2017-08-31T00:44:01.384Z,80.68
2017-08-31T00:45:01.410Z,81.16
2017-08-31T00:46:01.434Z,80.38
2017-08-31T00:48:01.477Z,79.52
2017-08-31T00:49:01.520Z,80.19
2017-08-31T00:50:01.533Z,80.77
2017-08-31T00:51:01.573Z,80.68
2017-08-31T00:52:01.589Z,80.77
2017-08-31T00:53:16.230Z,81.35
2017-08-31T00:54:01.644Z,81.25
2017-08-31T00:55:01.660Z,81.54
2017-08-31T00:56:01.699Z,81.35
2017-08-31T00:57:01.764Z,80.38
2017-08-31T00:58:01.428Z,79.9
2017-08-31T00:59:01.771Z,80.29
2017-08-31T01:00:01.791Z,80.68
2017-08-31T01:01:01.821Z,80.87
2017-08-31T01:02:01.537Z,80.77
2017-08-31T01:03:01.553Z,80.77
2017-08-31T01:04:01.589Z,80.29
2017-08-31T01:05:01.921Z,80.38
2017-08-31T01:06:01.961Z,79.71
2017-08-31T01:07:01.971Z,79.61
2017-08-31T01:08:16.609Z,79.33
2017-08-31T01:10:02.052Z,78.56
2017-08-31T01:11:02.069Z,78.98
2017-08-31T01:12:02.102Z,78.59
2017-08-31T01:13:02.130Z,78.69
2017-08-31T01:14:01.840Z,78.4
2017-08-31T01:15:02.180Z,78.11
2017-08-31T01:16:02.205Z,78.5
2017-08-31T01:17:02.226Z,78.69
2017-08-31T01:18:01.933Z,78.21
2017-08-31T01:19:02.275Z,78.21
2017-08-31T01:20:02.321Z,77.44
2017-08-31T01:21:02.332Z,78.11
2017-08-31T01:22:02.345Z,77.96
2017-08-31T01:23:02.375Z,77.34
2017-08-31T01:24:02.399Z,77.53
2017-08-31T01:25:02.426Z,77.96
2017-08-31T01:26:02.456Z,77.83
2017-08-31T01:27:02.192Z,77.76
2017-08-31T01:28:02.514Z,77.76
2017-08-31T01:29:02.532Z,78.06
2017-08-31T01:30:02.567Z,77.76
2017-08-31T01:31:02.577Z,78.34
2017-08-31T01:32:02.609Z,77.28
2017-08-31T01:33:02.633Z,76.9
2017-08-31T01:34:02.652Z,76.51
2017-08-31T01:35:02.674Z,76.42
2017-08-31T01:36:02.713Z,75.93
2017-08-31T01:38:02.765Z,76.32
2017-08-31T01:39:02.771Z,75.55
2017-08-31T01:40:17.421Z,76.23
2017-08-31T01:41:02.864Z,75.26
2017-08-31T01:42:02.866Z,75.74
2017-08-31T01:43:02.884Z,74.88
2017-08-31T01:45:02.947Z,75.68
2017-08-31T01:47:02.992Z,74.82
2017-08-31T01:48:03.012Z,74.52
2017-08-31T01:49:03.094Z,74.24
2017-08-31T01:50:03.061Z,74.72
2017-08-31T01:51:02.782Z,74.52
2017-08-31T01:52:03.108Z,74.52
2017-08-31T01:53:03.147Z,74.33
2017-08-31T01:54:03.167Z,73.66
2017-08-31T01:55:03.194Z,73.37
2017-08-31T01:56:17.831Z,73.37
2017-08-31T01:57:03.231Z,73.47
2017-08-31T01:58:03.272Z,73.21
2017-08-31T01:59:03.287Z,72.79
2017-08-31T02:00:03.322Z,73.69
2017-08-31T02:02:03.364Z,73.02
2017-08-31T02:03:03.380Z,73.21
2017-08-31T02:04:03.418Z,73.21
2017-08-31T02:05:03.442Z,72.54
2017-08-31T02:06:03.466Z,72.73
2017-08-31T02:07:03.179Z,72.34
2017-08-31T02:08:03.525Z,72.63
2017-08-31T02:09:03.547Z,72.44
2017-08-31T02:10:03.582Z,72.73
2017-08-31T02:11:03.604Z,73.02
2017-08-31T02:12:18.232Z,73.31
2017-08-31T02:13:03.657Z,73.69
2017-08-31T02:14:03.668Z,73.41
2017-08-31T02:16:03.735Z,73.21
2017-08-31T02:17:03.752Z,73.21
2017-08-31T02:18:03.768Z,73.21
2017-08-31T02:19:03.805Z,73.41
2017-08-31T02:20:03.829Z,72.92
2017-08-31T02:21:03.851Z,73.69
2017-08-31T02:22:03.875Z,73.69
2017-08-31T02:23:03.908Z,73.31
2017-08-31T02:24:03.916Z,73.21
2017-08-31T02:25:03.949Z,73.02
2017-08-31T02:26:03.982Z,74.08
2017-08-31T02:27:04.009Z,74.08
2017-08-31T02:28:18.646Z,73.79
2017-08-31T02:29:04.054Z,73.99
2017-08-31T02:30:04.082Z,73.6
2017-08-31T02:31:04.098Z,73.69
2017-08-31T02:32:04.139Z,74.08
2017-08-31T02:33:04.159Z,73.73
2017-08-31T02:34:04.189Z,73.73
2017-08-31T02:35:04.207Z,74.41
2017-08-31T02:36:04.246Z,73.63
2017-08-31T02:37:04.260Z,73.6
2017-08-31T02:38:04.280Z,73.83
2017-08-31T02:39:04.315Z,74.12
2017-08-31T02:40:04.347Z,74.41
2017-08-31T02:41:04.360Z,74.12
2017-08-31T02:42:04.376Z,74.27
2017-08-31T02:43:19.030Z,74.51
2017-08-31T02:44:04.444Z,74.89
2017-08-31T02:45:04.158Z,74.41
2017-08-31T02:46:04.483Z,73.73
2017-08-31T02:47:04.519Z,74.31
2017-08-31T02:48:04.539Z,74.21
2017-08-31T02:50:04.588Z,74.41
2017-08-31T02:51:04.616Z,74.69
2017-08-31T02:52:04.658Z,74.21
2017-08-31T02:53:04.664Z,75.37
2017-08-31T02:54:04.696Z,74.79
2017-08-31T02:55:04.711Z,75.09
2017-08-31T02:57:04.779Z,74.89
2017-08-31T02:58:04.798Z,75.27
2017-08-31T02:59:04.828Z,75.47
2017-08-31T03:00:04.839Z,75.85
2017-08-31T03:01:04.871Z,75.57
2017-08-31T03:02:04.899Z,75.76
2017-08-31T03:03:04.931Z,75.67
2017-08-31T03:04:04.989Z,75.76
2017-08-31T03:05:04.967Z,75.57
2017-08-31T03:06:05.009Z,75.76
2017-08-31T03:07:05.029Z,75.76
2017-08-31T03:08:05.053Z,75.85
2017-08-31T03:09:05.071Z,75.95
2017-08-31T03:10:05.117Z,75.57
2017-08-31T03:11:05.117Z,76.82
2017-08-31T03:12:05.196Z,75.67
2017-08-31T03:13:05.176Z,76.53
2017-08-31T03:14:05.212Z,75.47
2017-08-31T03:15:19.849Z,76.34
2017-08-31T03:16:05.243Z,76.05
2017-08-31T03:17:05.294Z,75.76
2017-08-31T03:18:05.305Z,76.43
2017-08-31T03:19:05.334Z,76.34
2017-08-31T03:20:05.054Z,76.53
2017-08-31T03:21:05.385Z,76.5
2017-08-31T03:22:05.428Z,77.17
2017-08-31T03:23:05.447Z,77.17
2017-08-31T03:24:05.464Z,77.07
2017-08-31T03:25:05.494Z,77.17
2017-08-31T03:26:05.514Z,77.11
2017-08-31T03:28:05.562Z,77.55
2017-08-31T03:29:05.601Z,77.55
2017-08-31T03:30:05.634Z,77.07
2017-08-31T03:31:20.256Z,77.01
2017-08-31T03:32:05.667Z,77.3
2017-08-31T03:33:05.380Z,77.46
2017-08-31T03:34:05.721Z,77.36
2017-08-31T03:35:05.744Z,77.94
2017-08-31T03:36:05.763Z,78.08
2017-08-31T03:37:05.485Z,77.55
2017-08-31T03:38:05.512Z,77.65
2017-08-31T03:39:05.840Z,77.84
2017-08-31T03:40:05.876Z,78.13
2017-08-31T03:41:05.897Z,78.52
2017-08-31T03:42:05.915Z,78.42
2017-08-31T03:43:05.949Z,78.81
2017-08-31T03:44:05.977Z,78.81
2017-08-31T03:45:06.010Z,78.91
2017-08-31T03:46:06.021Z,78.91
2017-08-31T03:47:20.662Z,78.81
2017-08-31T03:48:06.070Z,79
2017-08-31T03:50:06.130Z,79
2017-08-31T03:51:06.143Z,79.49
2017-08-31T03:52:06.175Z,79.39
2017-08-31T03:53:06.203Z,79.49
2017-08-31T03:54:05.909Z,79.87
2017-08-31T03:55:06.257Z,79.87
2017-08-31T03:57:06.298Z,81.02
2017-08-31T03:58:06.028Z,80.93
2017-08-31T03:59:06.344Z,81.22
2017-08-31T04:00:06.083Z,81.02
2017-08-31T04:01:06.405Z,80.83
2017-08-31T04:02:06.436Z,80.93
2017-08-31T04:03:21.073Z,81.32
2017-08-31T04:04:06.483Z,81.51
2017-08-31T04:05:06.547Z,81.8
2017-08-31T04:06:06.545Z,81.41
2017-08-31T04:07:06.556Z,81.41
2017-08-31T04:08:06.595Z,81.6
2017-08-31T04:10:06.634Z,81.7
2017-08-31T04:11:06.661Z,82.48
2017-08-31T04:12:06.696Z,82.09
2017-08-31T04:13:06.715Z,82.18
2017-08-31T04:14:06.426Z,82.48
2017-08-31T04:15:06.775Z,82.76
2017-08-31T04:16:06.795Z,83.44
2017-08-31T04:17:06.827Z,83.83
2017-08-31T04:18:21.459Z,83.53
2017-08-31T04:19:06.868Z,83.11
2017-08-31T04:20:06.899Z,84.01
2017-08-31T04:21:06.935Z,84.01
2017-08-31T04:22:06.951Z,84.21
2017-08-31T04:23:06.979Z,84.01
2017-08-31T04:24:06.999Z,84.31
2017-08-31T04:25:07.032Z,84.79
2017-08-31T04:26:07.047Z,84.5
2017-08-31T04:27:07.061Z,85.27
2017-08-31T04:28:06.793Z,84.89
2017-08-31T04:29:07.126Z,84.89
2017-08-31T04:30:06.839Z,84.98
2017-08-31T04:31:07.171Z,85.37
2017-08-31T04:32:07.210Z,86.14
2017-08-31T04:33:07.227Z,86.14
2017-08-31T04:34:07.251Z,85.94
2017-08-31T04:35:06.961Z,86.33
2017-08-31T04:36:07.318Z,86.72
2017-08-31T04:37:07.334Z,86.33
2017-08-31T04:38:07.358Z,86.91
2017-08-31T04:39:07.383Z,87.01
2017-08-31T04:40:07.405Z,87.3
2017-08-31T04:41:07.435Z,87.78
2017-08-31T04:42:07.450Z,87.78
2017-08-31T04:44:07.508Z,88.26
2017-08-31T04:45:07.532Z,87.59
2017-08-31T04:46:07.572Z,87.78
2017-08-31T04:47:07.581Z,87.78
2017-08-31T04:48:07.606Z,87.63
2017-08-31T04:49:07.646Z,87.97
2017-08-31T04:50:22.273Z,88.26
2017-08-31T04:51:07.715Z,88.55
2017-08-31T04:52:07.401Z,89.23
2017-08-31T04:53:07.429Z,89.32
2017-08-31T04:54:07.459Z,89.9
2017-08-31T04:55:07.485Z,89.9
2017-08-31T04:56:07.818Z,89.9
2017-08-31T04:57:07.526Z,89.9
2017-08-31T04:58:07.867Z,89.71
2017-08-31T04:59:07.580Z,89.71
2017-08-31T05:00:07.606Z,90.77
2017-08-31T05:01:07.630Z,90.77
2017-08-31T05:03:07.688Z,90.87
2017-08-31T05:04:08.026Z,90.48
2017-08-31T05:05:08.049Z,90
2017-08-31T05:06:22.683Z,90.53
2017-08-31T05:07:08.111Z,90.72
2017-08-31T05:08:08.120Z,91.11
2017-08-31T05:09:08.157Z,91.01
2017-08-31T05:11:08.198Z,91.06
2017-08-31T05:12:08.234Z,91.74
2017-08-31T05:13:08.263Z,91.54
2017-08-31T05:14:08.263Z,91.59
2017-08-31T05:15:08.304Z,91.39
2017-08-31T05:16:08.015Z,91.3
2017-08-31T05:17:08.048Z,91.78
2017-08-31T05:18:08.367Z,91.3
2017-08-31T05:19:08.404Z,91.39
2017-08-31T05:20:08.433Z,91.49
2017-08-31T05:21:08.460Z,90.81
2017-08-31T05:22:23.096Z,91.49
2017-08-31T05:23:08.508Z,91.63
2017-08-31T05:24:08.549Z,91.39
2017-08-31T05:25:08.547Z,91.25
2017-08-31T05:26:08.586Z,90.72
2017-08-31T05:27:08.614Z,91.49
2017-08-31T05:28:08.640Z,91.63
2017-08-31T05:29:08.667Z,91.83
2017-08-31T05:30:08.700Z,92.31
2017-08-31T05:31:08.722Z,91.53
2017-08-31T05:32:08.734Z,91.63
2017-08-31T05:33:08.770Z,92.02
2017-08-31T05:34:08.795Z,92.31
2017-08-31T05:35:08.807Z,91.83
2017-08-31T05:36:08.846Z,91.92
2017-08-31T05:37:08.884Z,91.39
2017-08-31T05:38:23.512Z,91.44
2017-08-31T05:39:08.922Z,91.29
2017-08-31T05:40:08.961Z,90.71
2017-08-31T05:41:08.975Z,90.91
2017-08-31T05:42:09.007Z,91.09
2017-08-31T05:43:09.041Z,91
2017-08-31T05:44:08.738Z,90.61
2017-08-31T05:45:09.076Z,91.67
2017-08-31T05:46:09.115Z,91.87
2017-08-31T05:47:09.129Z,91.19
2017-08-31T05:48:09.159Z,92.45
2017-08-31T05:49:09.178Z,91.67
2017-08-31T05:50:09.219Z,92.07
2017-08-31T05:51:09.222Z,91.77
2017-08-31T05:52:09.266Z,91.97
2017-08-31T05:53:23.903Z,91.29
2017-08-31T05:54:09.331Z,91.77
2017-08-31T05:55:09.343Z,92.07
2017-08-31T05:56:09.061Z,92.07
2017-08-31T05:57:09.395Z,92.07
2017-08-31T05:58:09.416Z,91.97
2017-08-31T05:59:09.434Z,92.25
2017-08-31T06:00:09.480Z,91.67
2017-08-31T06:01:09.514Z,91.67
2017-08-31T06:02:09.526Z,91.14
2017-08-31T06:03:09.558Z,90.75
2017-08-31T06:04:09.590Z,89.54
2017-08-31T06:05:09.600Z,89.15
2017-08-31T06:06:09.647Z,88.87
2017-08-31T06:07:09.657Z,88.43
2017-08-31T06:08:09.379Z,87.65
2017-08-31T06:09:09.396Z,86.98
2017-08-31T06:10:09.740Z,86.24
2017-08-31T06:11:09.464Z,85.76
2017-08-31T06:12:09.485Z,84.99
2017-08-31T06:13:09.819Z,84.83
2017-08-31T06:14:09.549Z,85.03
2017-08-31T06:15:09.572Z,84.16
2017-08-31T06:16:09.918Z,83.77
2017-08-31T06:17:09.926Z,82.26
2017-08-31T06:18:09.964Z,81.23
2017-08-31T06:19:09.997Z,80.6
2017-08-31T06:20:10.033Z,80.88
2017-08-31T06:21:09.735Z,80.6
2017-08-31T06:22:10.074Z,79.53
2017-08-31T06:23:10.115Z,78.44
2017-08-31T06:24:10.135Z,77.95
2017-08-31T06:25:24.788Z,76.15
2017-08-31T06:26:10.199Z,75.99
2017-08-31T06:27:10.230Z,75.21
2017-08-31T06:28:10.305Z,74.38
2017-08-31T06:29:10.306Z,73.15
2017-08-31T06:30:10.322Z,72.37
2017-08-31T06:31:10.043Z,72.21
2017-08-31T06:32:10.394Z,71.43
2017-08-31T06:33:10.426Z,70.5
2017-08-31T06:34:10.457Z,70.2
2017-08-31T06:35:10.484Z,69.56
2017-08-31T06:36:10.508Z,69.75
2017-08-31T06:37:10.558Z,68.77
2017-08-31T06:38:10.575Z,69.39
2017-08-31T06:39:10.619Z,69.2
2017-08-31T06:40:10.635Z,68.71
2017-08-31T06:41:25.299Z,69.59
2017-08-31T06:42:10.712Z,69.91
2017-08-31T06:43:10.749Z,70.98
2017-08-31T06:44:10.785Z,71.72
2017-08-31T06:45:10.814Z,71.2
2017-08-31T06:46:10.853Z,72.11
2017-08-31T06:47:10.878Z,72.41
2017-08-31T06:48:10.926Z,72.37
2017-08-31T06:49:10.943Z,73.05
2017-08-31T06:50:10.988Z,71.69
2017-08-31T06:51:11.022Z,71.33
2017-08-31T06:52:11.051Z,70.46
2017-08-31T06:53:11.078Z,69.62
2017-08-31T06:54:11.117Z,69.36
2017-08-31T06:55:11.141Z,68.77
2017-08-31T06:56:11.187Z,68.38
2017-08-31T06:57:25.818Z,67.99
2017-08-31T06:58:10.924Z,67.83
2017-08-31T06:59:11.271Z,66.5
2017-08-31T07:00:11.297Z,67.57
2017-08-31T07:01:11.341Z,67.54
2017-08-31T07:02:11.382Z,67.83
2017-08-31T07:03:11.404Z,68.03
2017-08-31T07:04:11.445Z,67.44
2017-08-31T07:05:11.466Z,66.79
2017-08-31T07:06:11.510Z,66.69
2017-08-31T07:07:11.539Z,65.53
2017-08-31T07:08:11.574Z,65.72
2017-08-31T07:09:11.617Z,65.36
2017-08-31T07:10:11.637Z,65.46
2017-08-31T07:12:11.713Z,65
2017-08-31T07:13:26.356Z,63.83
2017-08-31T07:14:11.790Z,63.44
2017-08-31T07:15:11.813Z,63.44
2017-08-31T07:16:11.854Z,64.36
2017-08-31T07:17:11.891Z,63.15
2017-08-31T07:18:11.925Z,62.89
2017-08-31T07:19:11.955Z,62.01
2017-08-31T07:21:12.003Z,60.7
2017-08-31T07:22:12.057Z,60.7
2017-08-31T07:23:12.085Z,60.89
2017-08-31T07:24:12.128Z,60.86
2017-08-31T07:25:12.167Z,61.84
2017-08-31T07:26:12.196Z,60.67
2017-08-31T07:27:12.219Z,60.21
2017-08-31T07:28:26.877Z,59.92
2017-08-31T07:29:12.300Z,60.31
2017-08-31T07:30:12.025Z,60.05
2017-08-31T07:31:12.370Z,59.46
2017-08-31T07:32:12.407Z,60.37
2017-08-31T07:33:12.437Z,59.69
2017-08-31T07:34:12.484Z,59.07
2017-08-31T07:35:12.516Z,58.41
2017-08-31T07:36:12.240Z,59.07
2017-08-31T07:37:12.580Z,58.51
2017-08-31T07:39:12.659Z,58.41
2017-08-31T07:40:12.692Z,58.22
2017-08-31T07:41:12.723Z,58.97
2017-08-31T07:42:12.762Z,58.7
2017-08-31T07:43:12.790Z,58.61
2017-08-31T07:44:12.830Z,59.12
2017-08-31T07:45:12.877Z,57.46
2017-08-31T07:46:12.596Z,57.53
2017-08-31T07:47:12.944Z,57.24
2017-08-31T07:48:12.979Z,56.97
2017-08-31T07:49:13.023Z,58.02
2017-08-31T07:50:13.046Z,58.31
2017-08-31T07:51:13.096Z,57.53
2017-08-31T07:52:13.118Z,57.82
2017-08-31T07:53:13.162Z,58.41
2017-08-31T07:54:13.198Z,56.68
2017-08-31T07:55:13.232Z,56.21
2017-08-31T07:56:13.263Z,55.66
2017-08-31T07:57:13.309Z,54.7
2017-08-31T07:58:13.027Z,54.5
2017-08-31T07:59:13.372Z,54.73
2017-08-31T08:00:28.026Z,54.7
2017-08-31T08:01:13.446Z,54.68
2017-08-31T08:02:13.483Z,54.68
2017-08-31T08:03:13.513Z,55.56
2017-08-31T08:04:13.567Z,54.87
2017-08-31T08:05:13.585Z,55.1
2017-08-31T08:06:13.626Z,54.41
2017-08-31T08:07:13.668Z,54.6
2017-08-31T08:08:13.701Z,53.92
2017-08-31T08:09:13.738Z,54.02
2017-08-31T08:11:13.808Z,53.72
2017-08-31T08:12:13.528Z,53.72
2017-08-31T08:13:13.872Z,54.5
2017-08-31T08:14:13.601Z,53.72
2017-08-31T08:15:13.946Z,53.92
2017-08-31T08:16:28.601Z,53.26
2017-08-31T08:17:14.016Z,53.65
2017-08-31T08:18:14.064Z,53.75
2017-08-31T08:19:14.102Z,52.96
2017-08-31T08:20:14.134Z,53.16
2017-08-31T08:21:14.170Z,53.75
2017-08-31T08:22:14.206Z,52.69
2017-08-31T08:23:14.242Z,53.36
2017-08-31T08:24:14.266Z,53.43
2017-08-31T08:25:14.322Z,53.72
2017-08-31T08:26:14.344Z,52.76
2017-08-31T08:27:14.079Z,53.33
2017-08-31T08:28:14.412Z,52.64
2017-08-31T08:29:14.449Z,54.09
2017-08-31T08:30:14.498Z,53.01
2017-08-31T08:32:29.182Z,53.69
2017-08-31T08:33:14.608Z,53.89
2017-08-31T08:34:14.640Z,53.69
2017-08-31T08:35:14.366Z,52.86
2017-08-31T08:36:14.712Z,52.74
2017-08-31T08:37:14.752Z,51.89
2017-08-31T08:38:14.792Z,51.79
2017-08-31T08:39:14.863Z,53.33
2017-08-31T08:40:14.544Z,53.03
2017-08-31T08:41:14.881Z,51.86
2017-08-31T08:42:14.913Z,52.55
2017-08-31T08:43:14.948Z,52.64
2017-08-31T08:45:15.040Z,51.39
2017-08-31T08:46:15.073Z,51.79
2017-08-31T08:47:15.105Z,51.59
2017-08-31T08:48:29.753Z,52.37
2017-08-31T08:49:15.180Z,51.96
2017-08-31T08:50:15.208Z,51.89
2017-08-31T08:51:15.247Z,51.98
2017-08-31T08:52:15.291Z,52.67
2017-08-31T08:53:15.312Z,53.4
2017-08-31T08:54:15.356Z,53.5
2017-08-31T08:55:15.398Z,53.69
2017-08-31T08:56:15.425Z,52.52
2017-08-31T08:57:15.469Z,52.45
2017-08-31T08:58:15.501Z,52.74
2017-08-31T08:59:15.542Z,53.33
2017-08-31T09:00:15.571Z,51.79
2017-08-31T09:01:15.612Z,53.43
2017-08-31T09:02:15.636Z,53.67
2017-08-31T09:03:30.289Z,54.25
2017-08-31T09:04:15.717Z,53.28
2017-08-31T09:05:15.748Z,53.57
2017-08-31T09:07:15.508Z,52.74
2017-08-31T09:08:15.852Z,52.74
2017-08-31T09:09:15.888Z,52.74
2017-08-31T09:10:15.928Z,52.15
2017-08-31T09:11:15.962Z,51.69
2017-08-31T09:12:15.991Z,53.75
2017-08-31T09:13:16.028Z,55.51
2017-08-31T09:14:16.048Z,56.65
2017-08-31T09:15:16.094Z,56.82
2017-08-31T09:16:16.139Z,57.31
2017-08-31T09:17:16.172Z,57.57
2017-08-31T09:18:16.207Z,57.77
2017-08-31T09:19:16.248Z,57.97
2017-08-31T09:20:16.255Z,58.52
2017-08-31T09:21:16.318Z,56.99
2017-08-31T09:22:16.340Z,58.28
2017-08-31T09:23:16.372Z,58.91
2017-08-31T09:24:16.399Z,58.23
2017-08-31T09:25:16.130Z,58.36
2017-08-31T09:26:16.488Z,58.26
2017-08-31T09:27:16.497Z,57.4
2017-08-31T09:28:16.550Z,57.14
2017-08-31T09:29:16.584Z,57.14
2017-08-31T09:30:16.621Z,57.34
2017-08-31T09:31:16.651Z,57.53
2017-08-31T09:32:16.363Z,58.87
2017-08-31T09:33:16.710Z,58.55
2017-08-31T09:34:16.749Z,60.73
2017-08-31T09:35:31.392Z,59.07
2017-08-31T09:36:16.819Z,59.04
2017-08-31T09:37:16.854Z,59.75
2017-08-31T09:38:16.881Z,59.04
2017-08-31T09:39:16.921Z,59.04
2017-08-31T09:40:16.948Z,58.91
2017-08-31T09:41:16.977Z,59.01
2017-08-31T09:42:17.012Z,57.77
2017-08-31T09:43:17.069Z,56.82
2017-08-31T09:44:17.067Z,55.6
2017-08-31T09:45:17.121Z,54.65
2017-08-31T09:46:17.137Z,53.72
2017-08-31T09:47:17.171Z,52.76
2017-08-31T09:48:17.217Z,52.69
2017-08-31T09:49:17.250Z,53.45
2017-08-31T09:50:17.270Z,53.65
2017-08-31T09:51:31.928Z,52.76
2017-08-31T09:52:17.348Z,52.8
2017-08-31T09:53:17.377Z,52.03
2017-08-31T09:54:17.414Z,51.34
2017-08-31T09:55:17.457Z,51.15
2017-08-31T09:56:17.482Z,51.74
2017-08-31T09:57:17.509Z,50.46
2017-08-31T09:59:17.575Z,50.27
2017-08-31T10:00:17.304Z,51.37
2017-08-31T10:01:17.640Z,52.11
2017-08-31T10:02:17.701Z,52.76
2017-08-31T10:03:17.726Z,53.82
2017-08-31T10:04:17.754Z,54.97
2017-08-31T10:05:17.773Z,54.77
2017-08-31T10:06:17.821Z,53.99
2017-08-31T10:07:32.466Z,53.72
2017-08-31T10:09:17.978Z,53.89
2017-08-31T10:10:17.944Z,54.09
2017-08-31T10:11:17.985Z,55.04
2017-08-31T10:12:18.022Z,55.24
2017-08-31T10:14:18.095Z,55.6
2017-08-31T10:15:18.112Z,56.97
2017-08-31T10:16:18.145Z,55.41
2017-08-31T10:18:18.226Z,55.96
2017-08-31T10:19:17.941Z,56.26
2017-08-31T10:20:18.331Z,57.01
2017-08-31T10:21:18.325Z,57.21
2017-08-31T10:22:18.348Z,57.28
2017-08-31T10:23:32.998Z,57.38
2017-08-31T10:24:18.419Z,56.1
2017-08-31T10:25:18.445Z,57.11
2017-08-31T10:26:18.487Z,57.5
2017-08-31T10:27:18.506Z,58.28
2017-08-31T10:28:18.542Z,57.48
2017-08-31T10:29:18.581Z,57.67
2017-08-31T10:30:18.623Z,56.89
2017-08-31T10:31:18.653Z,57.54
2017-08-31T10:32:18.687Z,58.72
2017-08-31T10:33:18.711Z,60.06
2017-08-31T10:34:18.739Z,60.61
2017-08-31T10:35:18.776Z,61
2017-08-31T10:36:18.801Z,60.22
2017-08-31T10:37:18.848Z,60.49
2017-08-31T10:38:33.482Z,60.61
2017-08-31T10:39:18.899Z,60.32
2017-08-31T10:40:18.625Z,60.13
2017-08-31T10:41:18.655Z,60.78
2017-08-31T10:42:19.005Z,60.58
2017-08-31T10:43:19.025Z,60.03
2017-08-31T10:44:18.750Z,60.06
2017-08-31T10:45:19.127Z,59.08
2017-08-31T10:46:19.120Z,59.47
2017-08-31T10:47:18.846Z,58.69
2017-08-31T10:48:19.188Z,58.98
2017-08-31T10:49:19.217Z,59.08
2017-08-31T10:50:19.238Z,59.05
2017-08-31T10:51:19.286Z,59.57
2017-08-31T10:52:18.998Z,59.05
2017-08-31T10:53:19.346Z,59.15
2017-08-31T10:55:19.098Z,60.32
2017-08-31T10:56:19.440Z,60.32
2017-08-31T10:57:19.456Z,60.42
2017-08-31T10:58:19.508Z,60.03
2017-08-31T10:59:19.529Z,60.42
2017-08-31T11:00:19.256Z,58.95
2017-08-31T11:01:19.594Z,60.91
2017-08-31T11:02:19.313Z,60.42
2017-08-31T11:03:19.662Z,59.34
2017-08-31T11:04:19.686Z,58.69
2017-08-31T11:05:19.722Z,58.59
2017-08-31T11:07:19.782Z,57.13
2017-08-31T11:08:19.823Z,57.59
2017-08-31T11:09:19.942Z,57
2017-08-31T11:10:34.495Z,56.02
2017-08-31T11:11:19.912Z,57.2
2017-08-31T11:12:19.949Z,55.57
2017-08-31T11:13:20.084Z,55.76
2017-08-31T11:14:19.996Z,55.96
2017-08-31T11:15:20.023Z,56.05
2017-08-31T11:16:20.051Z,55.44
2017-08-31T11:17:20.330Z,56.05
2017-08-31T11:18:20.223Z,55.57
2017-08-31T11:19:20.256Z,56.27
2017-08-31T11:20:20.202Z,55
2017-08-31T11:21:19.909Z,55
2017-08-31T11:22:20.358Z,56.27
2017-08-31T11:23:20.386Z,55.59
2017-08-31T11:24:20.325Z,55.1
2017-08-31T11:25:20.404Z,54.35
2017-08-31T11:26:34.996Z,54.44
2017-08-31T11:27:20.693Z,55.22
2017-08-31T11:28:20.631Z,55.71
2017-08-31T11:29:20.694Z,54.38
2017-08-31T11:31:20.909Z,55.52
2017-08-31T11:32:20.374Z,55.88
2017-08-31T11:33:20.887Z,57.38
2017-08-31T11:34:21.024Z,56.99
2017-08-31T11:35:20.868Z,55.81
2017-08-31T11:36:20.459Z,55.69
2017-08-31T11:37:20.899Z,55.71
2017-08-31T11:38:20.863Z,55.91
2017-08-31T11:39:20.888Z,55.52
2017-08-31T11:40:20.817Z,55.3
2017-08-31T11:41:20.849Z,55.79
2017-08-31T11:42:35.493Z,56.27
2017-08-31T11:43:20.911Z,56.25
2017-08-31T11:44:20.944Z,56.02
2017-08-31T11:45:20.989Z,56.15
2017-08-31T11:47:21.030Z,55.47
2017-08-31T11:48:21.078Z,56.15
2017-08-31T11:49:21.096Z,56.84
2017-08-31T11:50:20.825Z,57.03
2017-08-31T11:51:21.169Z,55.76
2017-08-31T11:52:21.195Z,56.64
2017-08-31T11:53:20.915Z,56.22
2017-08-31T11:54:21.244Z,56.41
2017-08-31T11:55:21.306Z,56.61
2017-08-31T11:56:21.306Z,57.26
2017-08-31T11:57:21.349Z,57.26
2017-08-31T11:58:35.994Z,56.75
2017-08-31T11:59:21.513Z,57.34
2017-08-31T12:01:21.471Z,57.65
2017-08-31T12:02:21.647Z,57.26
2017-08-31T12:03:21.631Z,57.26
2017-08-31T12:04:21.247Z,56.41
2017-08-31T12:05:21.298Z,56.97
2017-08-31T12:06:21.309Z,57.17
2017-08-31T12:07:21.352Z,56.68
2017-08-31T12:08:21.373Z,56.87
2017-08-31T12:09:21.728Z,57.49
2017-08-31T12:10:21.438Z,56.71
2017-08-31T12:11:21.786Z,56.12
2017-08-31T12:12:21.510Z,55.93
2017-08-31T12:13:36.462Z,57.29
2017-08-31T12:14:22.081Z,56.41
2017-08-31T12:15:21.913Z,56.58
2017-08-31T12:16:21.626Z,56.1
2017-08-31T12:17:21.662Z,56.48
2017-08-31T12:18:22.154Z,55.8
2017-08-31T12:19:22.052Z,55.93
2017-08-31T12:20:22.066Z,55.93
2017-08-31T12:21:22.104Z,55.73
2017-08-31T12:22:22.122Z,56.41
2017-08-31T12:23:22.160Z,55.96
2017-08-31T12:24:22.192Z,55.54
2017-08-31T12:25:22.047Z,55.8
2017-08-31T12:26:22.248Z,56.07
2017-08-31T12:27:22.417Z,56.16
2017-08-31T12:28:22.096Z,56.95
2017-08-31T12:29:22.341Z,57.6
2017-08-31T12:30:22.479Z,58.18
2017-08-31T12:31:22.501Z,58.48
2017-08-31T12:32:22.438Z,59.35
2017-08-31T12:33:22.462Z,58.58
2017-08-31T12:34:22.495Z,58.22
2017-08-31T12:35:22.545Z,58.12
2017-08-31T12:36:22.554Z,58.14
2017-08-31T12:37:22.578Z,58.14
2017-08-31T12:38:22.610Z,58.5
2017-08-31T12:39:22.647Z,58.24
2017-08-31T12:40:22.679Z,57.65
2017-08-31T12:41:22.708Z,57.2
2017-08-31T12:42:22.730Z,56.1
2017-08-31T12:43:22.758Z,56
2017-08-31T12:44:22.789Z,55.73
2017-08-31T12:45:37.442Z,55.83
2017-08-31T12:46:22.647Z,55.71
2017-08-31T12:48:22.927Z,56.1
2017-08-31T12:49:23.049Z,56.38
2017-08-31T12:50:22.980Z,56.2
2017-08-31T12:51:23.004Z,55.9
2017-08-31T12:52:23.043Z,56
2017-08-31T12:53:23.061Z,56.2
2017-08-31T12:54:23.104Z,55.8
2017-08-31T12:55:23.135Z,55.8
2017-08-31T12:56:23.167Z,55.8
2017-08-31T12:57:23.191Z,55.61
2017-08-31T12:58:23.224Z,55.9
2017-08-31T12:59:23.358Z,55.02
2017-08-31T13:00:23.286Z,55.58
2017-08-31T13:01:37.928Z,55.38
2017-08-31T13:02:23.500Z,55.55
2017-08-31T13:03:23.381Z,56.21
2017-08-31T13:04:23.395Z,58.25
2017-08-31T13:05:23.274Z,62.77
2017-08-31T13:06:23.553Z,64.98
2017-08-31T13:07:23.490Z,66.86
2017-08-31T13:08:23.522Z,67.8
2017-08-31T13:09:23.243Z,68.48
2017-08-31T13:10:23.373Z,69.8
2017-08-31T13:11:23.403Z,69.76
2017-08-31T13:13:23.370Z,70.61
2017-08-31T13:14:23.395Z,71.67
2017-08-31T13:15:23.469Z,72.41
2017-08-31T13:16:23.773Z,72.8
2017-08-31T13:17:38.407Z,72.22
2017-08-31T13:19:23.542Z,72.61
2017-08-31T13:20:23.896Z,73.28
2017-08-31T13:22:23.974Z,74.8
2017-08-31T13:23:23.966Z,75.05
2017-08-31T13:24:23.679Z,76.89
2017-08-31T13:25:24.029Z,76.28
2017-08-31T13:26:24.042Z,76.46
2017-08-31T13:27:24.083Z,76.08
2017-08-31T13:28:24.119Z,77.14
2017-08-31T13:29:24.151Z,77.28
2017-08-31T13:30:24.166Z,77.76
2017-08-31T13:31:24.191Z,77.34
2017-08-31T13:32:24.014Z,78.59
2017-08-31T13:33:38.967Z,79.17
2017-08-31T13:34:24.290Z,80.15
2017-08-31T13:35:24.307Z,83.4